createdAt,value
2022-11-16T00:00:16.907Z,97894.91
2022-11-16T00:02:43.552Z,97895.97
2022-11-16T00:05:10.377Z,97896.97
2022-11-16T00:07:37.184Z,97904.78
2022-11-16T00:10:04.266Z,97901.88
2022-11-16T00:12:30.950Z,97901.88
2022-11-16T00:14:57.655Z,97897.59
2022-11-16T00:17:24.309Z,97901.09
2022-11-16T00:19:51.056Z,97898.88
2022-11-16T00:22:17.938Z,97903.19
2022-11-16T00:24:44.658Z,97905.66
2022-11-16T00:27:11.462Z,97897.41
2022-11-16T00:29:38.371Z,97900.09
2022-11-16T00:32:05.145Z,97903.97
2022-11-16T00:34:32.094Z,97913.41
2022-11-16T00:36:59.852Z,97914.63
2022-11-16T00:39:26.606Z,97919.78
2022-11-16T00:41:53.362Z,97913.41
2022-11-16T00:44:20.065Z,97900.41
2022-11-16T00:46:47.232Z,97902.28
2022-11-16T00:49:14.042Z,97908.69
2022-11-16T00:51:40.923Z,97908.88
2022-11-16T00:54:09.253Z,97902.72
2022-11-16T00:56:37.649Z,97907.03
2022-11-16T00:59:05.533Z,97908.13
2022-11-16T01:01:32.892Z,97905.66
2022-11-16T01:03:59.880Z,97893.50
2022-11-16T01:06:26.618Z,97887.13
2022-11-16T01:08:53.456Z,97885.75
2022-11-16T01:11:41.143Z,97873.63
2022-11-16T01:14:09.203Z,97877.53
2022-11-16T01:16:35.967Z,97889.66
2022-11-16T01:19:03.766Z,97890.84
2022-11-16T01:21:30.545Z,97894.53
2022-11-16T01:23:57.417Z,97886.72
2022-11-16T01:26:24.922Z,97883.19
2022-11-16T01:28:52.346Z,97880.25
2022-11-16T01:31:19.636Z,97883.94
2022-11-16T01:33:49.026Z,97876.31
2022-11-16T01:36:21.201Z,97871.56
2022-11-16T01:38:48.012Z,97863.28
2022-11-16T01:41:20.085Z,97867.22
2022-11-16T01:44:01.972Z,97863.94
2022-11-16T01:46:34.796Z,97868.50
2022-11-16T01:49:12.341Z,97877.59
2022-11-16T01:51:42.409Z,97883.53
2022-11-16T01:54:13.718Z,97889.94
2022-11-16T01:56:53.529Z,97892.03
2022-11-16T01:59:41.158Z,97903.19
2022-11-16T02:02:14.286Z,97906.94
2022-11-16T02:04:41.291Z,97901.19
2022-11-16T02:07:13.965Z,97910.63
2022-11-16T02:09:58.238Z,97914.13
2022-11-16T02:12:45.306Z,97926.91
2022-11-16T02:15:42.699Z,97922.00
2022-11-16T02:18:33.180Z,97925.56
2022-11-16T02:21:09.098Z,97930.69
2022-11-16T02:24:00.710Z,97943.84
2022-11-16T02:26:39.494Z,97942.84
2022-11-16T02:29:27.222Z,97945.50
2022-11-16T02:32:12.983Z,97934.81
2022-11-16T02:34:55.562Z,97934.41
2022-11-16T02:37:25.428Z,97945.09
2022-11-16T02:40:02.560Z,97946.56
2022-11-16T02:42:45.161Z,97942.44
2022-11-16T02:45:18.436Z,97947.16
2022-11-16T02:47:47.733Z,97940.00
2022-11-16T02:50:18.984Z,97942.47
2022-11-16T02:52:45.877Z,97948.88
2022-11-16T02:55:13.037Z,97955.88
2022-11-16T02:57:57.198Z,97966.34
2022-11-16T03:00:30.577Z,97959.78
2022-11-16T03:03:53.314Z,97964.94
2022-11-16T03:06:25.068Z,97968.84
2022-11-16T03:09:09.031Z,97978.28
2022-11-16T03:11:59.361Z,97982.00
2022-11-16T03:14:42.184Z,97984.88
2022-11-16T03:17:29.972Z,97993.06
2022-11-16T03:20:08.918Z,97991.03
2022-11-16T03:22:42.170Z,97997.41
2022-11-16T03:25:11.543Z,97996.38
2022-11-16T03:27:56.888Z,97989.78
2022-11-16T03:30:28.324Z,98008.47
2022-11-16T03:33:08.545Z,98004.56
2022-11-16T03:35:40.974Z,98005.59
2022-11-16T03:38:10.984Z,98010.09
2022-11-16T03:40:45.551Z,98021.00
2022-11-16T03:43:12.665Z,98011.13
2022-11-16T03:45:41.465Z,98013.19
2022-11-16T03:48:09.562Z,98018.09
2022-11-16T03:50:36.868Z,98019.75
2022-11-16T03:53:03.766Z,98022.81
2022-11-16T03:55:30.556Z,98027.56
2022-11-16T03:57:58.232Z,98031.66
2022-11-16T04:00:24.900Z,98027.75
2022-11-16T04:02:53.288Z,98029.19
2022-11-16T04:05:40.393Z,98041.50
2022-11-16T04:08:33.499Z,98048.94
2022-11-16T04:11:19.240Z,98054.25
2022-11-16T04:14:09.067Z,98049.31
2022-11-16T04:16:57.190Z,98040.06
2022-11-16T04:19:42.501Z,98038.00
2022-11-16T04:22:35.943Z,98037.81
2022-11-16T04:25:12.947Z,98037.19
2022-11-16T04:27:58.862Z,98039.69
2022-11-16T04:30:26.252Z,98054.03
2022-11-16T04:33:11.766Z,98052.84
2022-11-16T04:35:57.717Z,98044.59
2022-11-16T04:38:24.464Z,98041.50
2022-11-16T04:40:51.338Z,98058.72
2022-11-16T04:43:18.096Z,98056.88
2022-11-16T04:46:04.123Z,98062.00
2022-11-16T04:48:38.463Z,98058.06
2022-11-16T04:51:05.296Z,98064.00
2022-11-16T04:53:33.366Z,98055.38
2022-11-16T04:56:20.364Z,98048.38
2022-11-16T04:58:47.223Z,98048.31
2022-11-16T05:01:14.931Z,98050.34
2022-11-16T05:03:42.537Z,98048.91
2022-11-16T05:06:09.303Z,98053.19
2022-11-16T05:08:36.316Z,98053.59
2022-11-16T05:11:04.513Z,98072.03
2022-11-16T05:13:32.303Z,98062.19
2022-11-16T05:15:59.001Z,98071.41
2022-11-16T05:18:26.193Z,98072.63
2022-11-16T05:21:01.881Z,98072.00
2022-11-16T05:23:54.849Z,98078.78
2022-11-16T05:26:24.072Z,98071.81
2022-11-16T05:28:51.933Z,98075.28
2022-11-16T05:31:18.584Z,98074.47
2022-11-16T05:33:45.371Z,98082.47
2022-11-16T05:36:13.772Z,98095.19
2022-11-16T05:38:40.568Z,98090.06
2022-11-16T05:41:07.657Z,98105.22
2022-11-16T05:43:34.589Z,98094.16
2022-11-16T05:46:27.361Z,98105.63
2022-11-16T05:48:56.871Z,98094.34
2022-11-16T05:51:24.556Z,98097.00
2022-11-16T05:53:52.985Z,98097.81
2022-11-16T05:56:22.653Z,98095.78
2022-11-16T05:58:50.177Z,98092.13
2022-11-16T06:01:16.879Z,98097.81
2022-11-16T06:03:43.677Z,98099.50
2022-11-16T06:06:11.023Z,98101.75
2022-11-16T06:08:38.284Z,98100.34
2022-11-16T06:11:10.312Z,98101.16
2022-11-16T06:13:38.572Z,98095.00
2022-11-16T06:16:06.770Z,98088.88
2022-11-16T06:18:44.007Z,98085.97
2022-11-16T06:21:12.245Z,98088.00
2022-11-16T06:23:40.665Z,98085.13
2022-11-16T06:26:08.137Z,98096.41
2022-11-16T06:28:36.231Z,98092.13
2022-11-16T06:31:04.436Z,98089.47
2022-11-16T06:33:35.505Z,98093.31
2022-11-16T06:36:07.631Z,98092.50
2022-11-16T06:38:36.314Z,98094.97
2022-11-16T06:41:03.562Z,98088.84
2022-11-16T06:43:36.210Z,98099.69
2022-11-16T06:46:04.068Z,98090.25
2022-11-16T06:48:31.603Z,98094.94
2022-11-16T06:50:58.578Z,98088.97
2022-11-16T06:53:29.258Z,98087.31
2022-11-16T06:56:03.557Z,98085.88
2022-11-16T06:58:33.686Z,98088.72
2022-11-16T07:01:11.640Z,98103.28
2022-11-16T07:03:40.622Z,98101.44
2022-11-16T07:06:13.528Z,98105.13
2022-11-16T07:08:43.822Z,98109.81
2022-11-16T07:11:12.335Z,98107.34
2022-11-16T07:13:39.443Z,98111.69
2022-11-16T07:16:11.607Z,98112.31
2022-11-16T07:18:43.344Z,98113.75
2022-11-16T07:21:12.869Z,98110.06
2022-11-16T07:23:40.182Z,98110.06
2022-11-16T07:26:10.569Z,98106.75
2022-11-16T07:28:48.856Z,98106.75
2022-11-16T07:31:19.596Z,98107.81
2022-11-16T07:33:46.963Z,98106.38
2022-11-16T07:36:40.262Z,98107.22
2022-11-16T07:39:10.277Z,98110.31
2022-11-16T07:41:42.598Z,98112.56
2022-11-16T07:44:16.739Z,98113.59
2022-11-16T07:46:47.216Z,98110.94
2022-11-16T07:49:17.133Z,98115.63
2022-11-16T07:51:56.057Z,98112.97
2022-11-16T07:54:45.935Z,98112.97
2022-11-16T07:57:13.855Z,98103.91
2022-11-16T07:59:41.792Z,98105.94
2022-11-16T08:02:10.615Z,98104.09
2022-11-16T08:04:39.499Z,98102.47
2022-11-16T08:07:08.555Z,98096.50
2022-11-16T08:09:41.397Z,98095.06
2022-11-16T08:12:11.973Z,98095.66
2022-11-16T08:14:39.868Z,98091.94
2022-11-16T08:17:08.377Z,98094.44
2022-11-16T08:19:39.431Z,98090.94
2022-11-16T08:22:07.516Z,98093.59
2022-11-16T08:24:34.456Z,98097.28
2022-11-16T08:27:01.238Z,98092.56
2022-11-16T08:29:28.453Z,98090.72
2022-11-16T08:31:56.928Z,98090.53
2022-11-16T08:34:24.228Z,98097.91
2022-11-16T08:36:55.677Z,98098.94
2022-11-16T08:39:28.591Z,98099.53
2022-11-16T08:41:55.340Z,98100.16
2022-11-16T08:44:21.998Z,98107.78
2022-11-16T08:46:52.315Z,98105.13
2022-11-16T08:49:31.650Z,98107.16
2022-11-16T08:51:58.669Z,98107.75
2022-11-16T08:54:27.919Z,98114.28
2022-11-16T08:56:54.654Z,98125.22
2022-11-16T08:59:21.459Z,98130.16
2022-11-16T09:01:51.166Z,98124.19
2022-11-16T09:04:18.781Z,98124.66
2022-11-16T09:06:46.012Z,98124.66
2022-11-16T09:09:12.713Z,98120.59
2022-11-16T09:11:39.526Z,98124.69
2022-11-16T09:14:06.210Z,98123.69
2022-11-16T09:16:32.993Z,98117.59
2022-11-16T09:18:59.653Z,98114.66
2022-11-16T09:21:27.986Z,98112.63
2022-11-16T09:23:55.830Z,98127.00
2022-11-16T09:26:23.858Z,98130.66
2022-11-16T09:28:56.025Z,98142.16
2022-11-16T09:31:23.729Z,98135.03
2022-11-16T09:33:51.006Z,98129.28
2022-11-16T09:36:17.772Z,98129.94
2022-11-16T09:39:19.037Z,98139.00
2022-11-16T09:41:51.542Z,98124.00
2022-11-16T09:44:33.298Z,98133.06
2022-11-16T09:47:01.942Z,98137.59
2022-11-16T09:49:38.016Z,98133.53
2022-11-16T09:52:11.214Z,98134.97
2022-11-16T09:54:42.465Z,98143.34
2022-11-16T09:57:12.939Z,98137.22
2022-11-16T09:59:51.736Z,98140.34
2022-11-16T10:02:42.168Z,98142.41
2022-11-16T10:05:22.688Z,98143.25
2022-11-16T10:07:54.940Z,98148.22
2022-11-16T10:10:35.568Z,98153.19
2022-11-16T10:13:36.327Z,98153.47
2022-11-16T10:16:06.112Z,98164.34
2022-11-16T10:18:38.935Z,98158.66
2022-11-16T10:21:10.214Z,98162.13
2022-11-16T10:24:06.212Z,98165.03
2022-11-16T10:27:05.187Z,98168.75
2022-11-16T10:29:40.022Z,98163.44
2022-11-16T10:32:26.149Z,98162.22
2022-11-16T10:35:00.282Z,98162.47
2022-11-16T10:37:36.707Z,98156.94
2022-11-16T10:40:17.631Z,98159.81
2022-11-16T10:42:48.977Z,98159.19
2022-11-16T10:45:20.674Z,98160.25
2022-11-16T10:48:10.559Z,98161.88
2022-11-16T10:50:51.763Z,98163.31
2022-11-16T10:53:40.585Z,98157.97
2022-11-16T10:56:15.964Z,98160.03
2022-11-16T10:59:03.966Z,98163.53
2022-11-16T11:01:38.562Z,98168.03
2022-11-16T11:04:17.588Z,98161.88
2022-11-16T11:06:46.006Z,98153.88
2022-11-16T11:09:33.107Z,98155.31
2022-11-16T11:12:35.478Z,98161.06
2022-11-16T11:15:11.542Z,98159.41
2022-11-16T11:17:40.892Z,98165.97
2022-11-16T11:20:18.200Z,98163.91
2022-11-16T11:23:04.680Z,98163.31
2022-11-16T11:25:34.558Z,98171.34
2022-11-16T11:28:23.276Z,98163.75
2022-11-16T11:30:52.948Z,98163.16
2022-11-16T11:33:23.628Z,98167.09
2022-11-16T11:36:02.111Z,98161.13
2022-11-16T11:38:29.832Z,98174.28
2022-11-16T11:41:02.036Z,98165.47
2022-11-16T11:43:29.831Z,98163.84
2022-11-16T11:46:20.509Z,98169.38
2022-11-16T11:48:57.732Z,98171.44
2022-11-16T11:51:31.803Z,98170.44
2022-11-16T11:54:00.885Z,98174.78
2022-11-16T11:56:30.687Z,98167.16
2022-11-16T11:58:57.685Z,98171.88
2022-11-16T12:01:36.519Z,98175.38
2022-11-16T12:04:22.631Z,98185.03
2022-11-16T12:06:58.951Z,98184.22
2022-11-16T12:09:36.507Z,98178.06
2022-11-16T12:12:38.230Z,98178.06
2022-11-16T12:15:04.775Z,98180.53
2022-11-16T12:17:40.503Z,98189.38
2022-11-16T12:20:25.887Z,98191.19
2022-11-16T12:23:14.070Z,98182.78
2022-11-16T12:26:14.845Z,98183.81
2022-11-16T12:28:51.033Z,98191.81
2022-11-16T12:31:43.055Z,98187.09
2022-11-16T12:34:29.980Z,98179.28
2022-11-16T12:37:14.277Z,98185.47
2022-11-16T12:40:17.125Z,98191.63
2022-11-16T12:42:56.040Z,98190.38
2022-11-16T12:45:40.975Z,98192.00
2022-11-16T12:48:07.592Z,98193.84
2022-11-16T12:50:43.075Z,98199.22
2022-11-16T12:53:33.901Z,98190.38
2022-11-16T12:56:16.416Z,98197.78
2022-11-16T12:58:52.282Z,98204.75
2022-11-16T13:01:35.750Z,98211.31
2022-11-16T13:04:21.548Z,98212.97
2022-11-16T13:07:21.087Z,98214.81
2022-11-16T13:09:51.578Z,98221.19
2022-11-16T13:12:23.527Z,98213.75
2022-11-16T13:14:54.994Z,98212.13
2022-11-16T13:17:28.497Z,98221.38
2022-11-16T13:20:27.815Z,98212.13
2022-11-16T13:23:05.018Z,98206.34
2022-11-16T13:25:40.723Z,98210.06
2022-11-16T13:28:40.424Z,98218.69
2022-11-16T13:31:35.766Z,98219.31
2022-11-16T13:34:13.344Z,98218.28
2022-11-16T13:36:45.198Z,98213.19
2022-11-16T13:39:22.341Z,98207.41
2022-11-16T13:42:11.404Z,98210.69
2022-11-16T13:44:39.052Z,98220.72
2022-11-16T13:47:36.759Z,98212.50
2022-11-16T13:50:07.122Z,98215.16
2022-11-16T13:53:36.307Z,98212.47
2022-11-16T13:55:38.592Z,98218.25
2022-11-16T13:58:06.406Z,98206.75
2022-11-16T14:00:38.516Z,98216.19
2022-11-16T14:03:17.093Z,98214.53
2022-11-16T14:05:48.141Z,98209.00
2022-11-16T14:08:27.123Z,98220.13
2022-11-16T14:10:53.822Z,98212.47
2022-11-16T14:13:39.296Z,98212.91
2022-11-16T14:16:15.653Z,98212.47
2022-11-16T14:18:44.031Z,98213.34
2022-11-16T14:21:19.995Z,98218.44
2022-11-16T14:24:03.115Z,98217.41
2022-11-16T14:27:03.440Z,98201.81
2022-11-16T14:29:48.015Z,98211.22
2022-11-16T14:32:44.232Z,98204.72
2022-11-16T14:35:24.431Z,98212.75
2022-11-16T14:37:58.541Z,98218.69
2022-11-16T14:40:25.762Z,98217.59
2022-11-16T14:45:48.213Z,98212.84
2022-11-16T14:48:17.547Z,98225.09
2022-11-16T14:50:58.659Z,98208.47
2022-11-16T14:53:27.924Z,98221.19
2022-11-16T14:56:15.389Z,98218.97
2022-11-16T14:58:59.233Z,98225.75
2022-11-16T15:01:31.945Z,98215.06
2022-11-16T15:04:08.230Z,98230.28
2022-11-16T15:06:58.500Z,98232.34
2022-11-16T15:09:30.047Z,98237.69
2022-11-16T15:12:17.426Z,98236.69
2022-11-16T15:14:51.542Z,98232.81
2022-11-16T15:17:22.337Z,98221.13
2022-11-16T15:20:00.620Z,98223.19
2022-11-16T15:22:30.350Z,98222.38
2022-11-16T15:24:59.675Z,98219.47
2022-11-16T15:27:37.436Z,98221.34
2022-11-16T15:30:14.766Z,98220.09
2022-11-16T15:32:43.779Z,98222.53
2022-11-16T15:35:24.978Z,98221.31
2022-11-16T15:38:18.740Z,98210.00
2022-11-16T15:40:51.806Z,98212.69
2022-11-16T15:43:21.950Z,98212.06
2022-11-16T15:45:49.255Z,98218.38
2022-11-16T15:48:21.644Z,98213.06
2022-11-16T15:51:04.706Z,98220.88
2022-11-16T15:53:35.893Z,98218.38
2022-11-16T15:56:06.121Z,98225.16
2022-11-16T15:58:37.963Z,98226.97
2022-11-16T16:01:05.207Z,98235.16
2022-11-16T16:03:35.331Z,98237.19
2022-11-16T16:06:03.062Z,98237.16
2022-11-16T16:08:31.440Z,98229.78
2022-11-16T16:11:02.675Z,98235.38
2022-11-16T16:13:33.055Z,98249.28
2022-11-16T16:16:23.982Z,98246.81
2022-11-16T16:18:52.595Z,98244.38
2022-11-16T16:21:19.863Z,98243.16
2022-11-16T16:23:49.448Z,98236.00
2022-11-16T16:26:16.827Z,98241.34
2022-11-16T16:28:44.057Z,98225.69
2022-11-16T16:31:11.508Z,98230.81
2022-11-16T16:33:38.750Z,98230.09
2022-11-16T16:36:05.898Z,98230.06
2022-11-16T16:38:33.131Z,98227.59
2022-11-16T16:41:05.201Z,98227.59
2022-11-16T16:43:32.552Z,98231.84
2022-11-16T16:46:03.907Z,98230.41
2022-11-16T16:48:30.796Z,98235.34
2022-11-16T16:50:57.558Z,98228.16
2022-11-16T16:53:24.326Z,98244.41
2022-11-16T16:55:51.082Z,98243.63
2022-11-16T16:58:18.605Z,98251.88
2022-11-16T17:00:45.341Z,98251.38
2022-11-16T17:03:12.161Z,98265.56
2022-11-16T17:05:38.978Z,98256.56
2022-11-16T17:08:07.561Z,98247.13
2022-11-16T17:10:34.344Z,98257.56
2022-11-16T17:13:03.145Z,98255.34
2022-11-16T17:15:29.894Z,98256.16
2022-11-16T17:18:00.423Z,98257.41
2022-11-16T17:20:28.996Z,98265.22
2022-11-16T17:22:56.600Z,98260.91
2022-11-16T17:25:23.420Z,98271.38
2022-11-16T17:27:50.123Z,98266.63
2022-11-16T17:30:16.954Z,98271.72
2022-11-16T17:32:43.647Z,98273.53
2022-11-16T17:35:10.457Z,98267.16
2022-11-16T17:37:37.196Z,98271.88
2022-11-16T17:40:04.205Z,98289.69
2022-11-16T17:42:32.730Z,98280.59
2022-11-16T17:44:59.507Z,98276.44
2022-11-16T17:47:26.267Z,98271.13
2022-11-16T17:49:53.028Z,98270.13
2022-11-16T17:52:19.717Z,98271.97
2022-11-16T17:54:46.419Z,98274.00
2022-11-16T17:57:13.394Z,98277.09
2022-11-16T17:59:40.029Z,98270.81
2022-11-16T18:02:07.028Z,98269.41
2022-11-16T18:04:33.709Z,98262.47
2022-11-16T18:07:01.311Z,98256.13
2022-11-16T18:09:28.144Z,98258.38
2022-11-16T18:11:54.963Z,98255.94
2022-11-16T18:14:21.751Z,98254.25
2022-11-16T18:16:48.763Z,98251.59
2022-11-16T18:19:19.045Z,98245.00
2022-11-16T18:21:46.098Z,98256.13
2022-11-16T18:24:13.457Z,98249.56
2022-11-16T18:26:40.999Z,98249.56
2022-11-16T18:29:12.154Z,98255.94
2022-11-16T18:31:38.915Z,98252.41
2022-11-16T18:34:05.822Z,98259.78
2022-11-16T18:36:32.552Z,98250.97
2022-11-16T18:38:59.294Z,98248.31
2022-11-16T18:41:28.931Z,98241.38
2022-11-16T18:43:58.164Z,98235.84
2022-11-16T18:46:33.605Z,98231.53
2022-11-16T18:49:00.671Z,98237.13
2022-11-16T18:51:28.441Z,98235.66
2022-11-16T18:53:55.662Z,98245.72
2022-11-16T18:56:22.656Z,98249.19
2022-11-16T18:58:51.410Z,98249.56
2022-11-16T19:01:22.141Z,98248.75
2022-11-16T19:03:49.103Z,98254.91
2022-11-16T19:06:17.837Z,98254.41
2022-11-16T19:08:50.526Z,98260.03
2022-11-16T19:11:18.949Z,98258.19
2022-11-16T19:13:46.908Z,98251.81
2022-11-16T19:16:14.130Z,98246.88
2022-11-16T19:18:41.065Z,98256.09
2022-11-16T19:21:10.935Z,98250.78
2022-11-16T19:23:43.441Z,98245.84
2022-11-16T19:26:12.754Z,98238.69
2022-11-16T19:28:41.596Z,98233.16
2022-11-16T19:31:13.064Z,98233.44
2022-11-16T19:33:40.450Z,98227.09
2022-11-16T19:36:12.599Z,98225.31
2022-11-16T19:38:39.786Z,98227.00
2022-11-16T19:41:08.015Z,98230.09
2022-11-16T19:43:35.095Z,98219.63
2022-11-16T19:46:10.223Z,98226.38
2022-11-16T19:48:37.719Z,98232.78
2022-11-16T19:51:17.685Z,98213.91
2022-11-16T19:53:44.864Z,98210.72
2022-11-16T19:56:13.851Z,98204.31
2022-11-16T19:58:41.317Z,98205.13
2022-11-16T20:01:14.420Z,98194.50
2022-11-16T20:03:42.311Z,98185.09
2022-11-16T20:06:11.628Z,98190.88
2022-11-16T20:08:39.868Z,98180.41
2022-11-16T20:11:20.681Z,98175.91
2022-11-16T20:13:52.742Z,98166.50
2022-11-16T20:16:22.226Z,98162.22
2022-11-16T20:18:49.888Z,98163.94
2022-11-16T20:21:22.461Z,98150.41
2022-11-16T20:23:51.738Z,98160.09
2022-11-16T20:26:20.397Z,98158.25
2022-11-16T20:28:50.879Z,98154.16
2022-11-16T20:31:19.295Z,98148.19
2022-11-16T20:33:53.985Z,98160.75
2022-11-16T20:36:22.919Z,98150.88
2022-11-16T20:38:50.132Z,98159.13
2022-11-16T20:41:25.026Z,98159.50
2022-11-16T20:43:54.149Z,98158.69
2022-11-16T20:46:22.431Z,98172.69
2022-11-16T20:48:49.645Z,98161.19
2022-11-16T20:51:18.381Z,98149.06
2022-11-16T20:53:47.053Z,98148.81
2022-11-16T20:56:14.700Z,98142.28
2022-11-16T20:58:41.604Z,98149.25
2022-11-16T21:01:12.114Z,98132.22
2022-11-16T21:03:39.927Z,98133.22
2022-11-16T21:06:09.679Z,98111.03
2022-11-16T21:08:37.307Z,98125.81
2022-11-16T21:11:15.924Z,98108.56
2022-11-16T21:14:03.035Z,98117.59
2022-11-16T21:16:32.196Z,98118.41
2022-11-16T21:18:59.155Z,98097.25
2022-11-16T21:21:26.316Z,98089.66
2022-11-16T21:23:54.045Z,98112.88
2022-11-16T21:26:31.814Z,98096.63
2022-11-16T21:29:00.170Z,98096.63
2022-11-16T21:31:34.821Z,98112.22
2022-11-16T21:34:02.123Z,98107.69
2022-11-16T21:36:31.042Z,98122.03
2022-11-16T21:39:01.039Z,98099.41
2022-11-16T21:41:30.965Z,98115.06
2022-11-16T21:44:05.274Z,98093.88
2022-11-16T21:46:45.839Z,98092.03
2022-11-16T21:50:08.285Z,98090.78
2022-11-16T21:52:34.798Z,98087.28
2022-11-16T21:55:09.113Z,98093.66
2022-11-16T21:57:59.325Z,98073.34
2022-11-16T22:00:27.384Z,98077.09
2022-11-16T22:02:54.234Z,98076.47
2022-11-16T22:05:39.967Z,98079.38
2022-11-16T22:08:08.559Z,98068.25
2022-11-16T22:10:35.543Z,98066.22
2022-11-16T22:13:02.228Z,98081.00
2022-11-16T22:15:29.512Z,98069.50
2022-11-16T22:17:56.232Z,98068.88
2022-11-16T22:20:22.963Z,98086.75
2022-11-16T22:22:49.723Z,98097.44
2022-11-16T22:25:16.586Z,98101.97
2022-11-16T22:28:18.573Z,98103.81
2022-11-16T22:30:34.603Z,98099.91
2022-11-16T22:33:01.361Z,98103.59
2022-11-16T22:35:28.010Z,98117.56
2022-11-16T22:37:55.988Z,98126.41
2022-11-16T22:40:22.686Z,98100.53
2022-11-16T22:42:49.362Z,98116.13
2022-11-16T22:45:16.280Z,98110.59
2022-11-16T22:47:43.011Z,98108.56
2022-11-16T22:50:09.865Z,98109.16
2022-11-16T22:52:36.571Z,98129.50
2022-11-16T22:55:03.504Z,98125.59
2022-11-16T22:57:30.232Z,98130.31
2022-11-16T22:59:56.989Z,98112.66
2022-11-16T23:02:23.740Z,98128.88
2022-11-16T23:04:50.444Z,98126.03
2022-11-16T23:07:17.139Z,98124.16
2022-11-16T23:09:43.875Z,98118.81
2022-11-16T23:12:29.412Z,98145.94
2022-11-16T23:15:14.748Z,98142.66
2022-11-16T23:17:41.496Z,98151.91
2022-11-16T23:20:27.587Z,98143.91
2022-11-16T23:23:12.943Z,98155.81
2022-11-16T23:25:58.081Z,98143.03
2022-11-16T23:28:28.046Z,98141.03
2022-11-16T23:30:54.783Z,98151.09
2022-11-16T23:33:41.393Z,98145.53
2022-11-16T23:36:08.626Z,98152.94
2022-11-16T23:38:37.765Z,98169.81
2022-11-16T23:41:24.682Z,98156.66
2022-11-16T23:43:57.796Z,98145.94
2022-11-16T23:46:29.230Z,98149.22
2022-11-16T23:48:55.919Z,98154.34
2022-11-16T23:51:23.477Z,98155.75
2022-11-16T23:53:51.776Z,98153.53
2022-11-16T23:56:19.835Z,98146.94
2022-11-16T23:58:47.025Z,98136.69
